La Salle, Michigan
Current Conditions -  °F | °C
As of 1:47 AM on Friday 28 Nov 2014 (Local Time) from KTTF Reporting Station
Clear Clear  
Wind Chill:   Ceiling: Unl
Heat Index: 19°   Visibility: 10mi
Dew Point: 12°   Wind: 8mph
Humidity: 74%   Direction: 280°W
Pressure: 30.31"   Gusts: NA
Location:  41.87°N, 83.45°W
Report Text: KTTF 280647Z AUTO 28007KT 10SM CLR M07/M11 A3031 RMK AO2
Loading
Personal Weather Stations






























Interactive Weather Map New forecast layout! Learn more

10-Day Weather Forecast

Advertisements
Track Severe Weather on mobile